Radiance Of The Seas — C6SE7 — position and weather

sailwx.info

Track history (hours):
 
Tides and Currents Weather Stations Pressure Air Temp Water Temp Dewpoint Dewpoint Depression Visibility Wind Speed Wind Dir Waves Ship Positions

Radiance Of The Seas

Operator: Royal Caribbean Cruises Ltd

Last reported at 2019-Apr-25 15:00 UTC. Time now 2019-Apr-26 04:13 UTC.
Position S 26°18' W 159°18'.

Type: Passenger vessel. MMSI: 311319000.

Wind from 110 at 35 knots

Barometer 1020.0 mb
Air temperature 21.4 ° C
Visibility: greater than 2.2 NM
Dewpoint 21.4 ° C
Water temperature 24.5 ° C

Date/timePositionNaut miles runAvg speedWind from/ knotsBaromVisibWave heightAir tempDewpointWater temp
2019-Apr-25 15:00S 26°18' W 159°18'2020.1 110 / 351020.0 2.2 21.421.424.5
2019-Apr-25 14:00S 26°30' W 159°36'2424.1 110 / 321020.0 2.2 21.021.024.4
2019-Apr-25 13:00S 26°48' W 159°54'1717.1 110 / 251021.0 5.4 21.421.424.2
2019-Apr-25 12:00S 26°54' W 160°12'37919.0 090 / 271021.010.8 21.321.324.1
2019-Apr-24 16:00S 31°06' W 165°36'2019.5 090 / 171023.0 5.4 19.219.222.3
2019-Apr-24 15:00S 31°18' W 165°54'1919.5 080 / 201023.0 5.4 19.219.222.2
2019-Apr-24 14:00S 31°30' W 166°12'1615.8 090 / 231024.010.8 19.019.022.0
2019-Apr-24 13:00S 31°42' W 166°24'19319.3 090 / 201024.0 5.4 19.019.022.0
2019-Apr-24 03:00S 33°42' W 169°24'22520.5 060 / 201024.010.8 19.0
2019-Apr-23 16:00S 35°54' W 173°06'1918.9 050 / 251023.0 5.4 17.017.020.7
2019-Apr-23 15:00S 36°06' W 173°24'1615.7 050 / 251023.0 5.4 18.018.020.5
2019-Apr-23 14:00S 36°12' W 173°42'1515.4 050 / 251024.0 5.4 18.018.020.0
2019-Apr-23 13:00S 36°24' W 173°54'22120.1 050 / 251024.0 5.4 18.018.020.0
2019-Apr-23 02:00S 38°24' W 177°48'3014.8 020 / 221024.010.8 18.0
2019-Apr-23 00:00S 38°42' W 178°18'17321.7 030 / 251024.0 2.2 18.018.019.0
2019-Apr-22 16:00S 40°12' E 178°30'1515.0 030 / 251021.0 5.4 17.317.319.1
2019-Apr-22 15:00S 40°18' E 178°12'15319.9 040 / 231021.0 5.4 17.017.019.0
2019-Apr-22 07:19S 41°40' E 175°21'620.4
2019-Apr-22 07:00S 41°40' E 175°12'1021.0
2019-Apr-22 06:30S 41°34' E 175°01'1020.2
2019-Apr-22 06:00S 41°27' E 174°52'714.0
2019-Apr-22 05:30S 41°20' E 174°51'4 7.4
2019-Apr-22 04:54S 41°16' E 174°47'0 0.0
2019-Apr-22 04:30S 41°16' E 174°47'0 0.0
2019-Apr-22 04:00S 41°16' E 174°47'0 0.0
2019-Apr-22 03:27S 41°16' E 174°47'0 0.0
2019-Apr-22 03:00S 41°16' E 174°47'0 0.0
2019-Apr-22 02:27S 41°16' E 174°47'0 0.0
2019-Apr-22 02:00S 41°16' E 174°47'0 0.0
2019-Apr-22 01:30S 41°16' E 174°47'0 0.0
2019-Apr-22 01:00S 41°16' E 174°47'0 0.0
2019-Apr-22 00:24S 41°16' E 174°47'0 0.0
2019-Apr-22 00:00S 41°16' E 174°47'0 0.0
2019-Apr-21 23:30S 41°16' E 174°47'0 0.0
2019-Apr-21 23:00S 41°16' E 174°47'0 0.0
2019-Apr-21 22:30S 41°16' E 174°47'0 0.0
2019-Apr-21 21:57S 41°16' E 174°47'0 0.0
2019-Apr-21 21:30S 41°16' E 174°47'0 0.0
2019-Apr-21 21:00S 41°16' E 174°47'0 0.0
2019-Apr-21 20:24S 41°16' E 174°47'0 0.0
2019-Apr-21 20:00S 41°16' E 174°47'0 0.0
2019-Apr-21 19:30S 41°16' E 174°47'2 4.3
2019-Apr-21 19:00S 41°16' E 174°50'713.3
2019-Apr-21 18:30S 41°23' E 174°50'714.4
2019-Apr-21 18:01S 41°30' E 174°51'816.2
2019-Apr-21 17:30S 41°38' E 174°53'713.8
2019-Apr-21 17:00S 41°44' E 174°57'4 8.6
2019-Apr-21 16:30S 41°46' E 174°52'510.0
2019-Apr-21 16:00S 41°44' E 174°46'510.0
2019-Apr-21 15:30S 41°42' E 174°40'5 9.9
2019-Apr-21 15:01S 41°38' E 174°35'510.5
2019-Apr-21 14:31S 41°34' E 174°31'510.2
2019-Apr-21 14:00S 41°30' E 174°27'510.2
2019-Apr-21 13:30S 41°25' E 174°28'611.2
2019-Apr-21 13:00S 41°20' E 174°29'611.8
2019-Apr-21 12:30S 41°14' E 174°31'611.0
2019-Apr-21 12:00S 41°08' E 174°32'510.3
2019-Apr-21 11:30S 41°03' E 174°33'5 9.9
2019-Apr-21 11:00S 41°01' E 174°27'4 8.7
2019-Apr-21 10:30S 41°02' E 174°22'5 9.9
2019-Apr-21 10:00S 41°06' E 174°17'713.2
2019-Apr-21 09:30S 41°11' E 174°12'815.2
2019-Apr-21 09:00S 41°15' E 174°03'3 5.9
2019-Apr-21 08:29S 41°17' E 174°00'0 0.0
2019-Apr-21 07:59S 41°17' E 174°00'0 0.0
2019-Apr-21 07:29S 41°17' E 174°00'0 0.0
2019-Apr-21 06:59S 41°17' E 174°00'0 0.0
2019-Apr-21 06:29S 41°17' E 174°00'0 0.0
2019-Apr-21 05:59S 41°17' E 174°00'0 0.0
2019-Apr-21 05:29S 41°17' E 174°00'0 0.0
2019-Apr-21 04:59S 41°17' E 174°00'0 0.0
2019-Apr-21 04:29S 41°17' E 174°00'0 0.0
2019-Apr-21 03:59S 41°17' E 174°00'0 0.0
2019-Apr-21 03:29S 41°17' E 174°00'0 0.0
2019-Apr-21 02:59S 41°17' E 174°00'0 0.0
2019-Apr-21 02:29S 41°17' E 174°00'0 0.0
2019-Apr-21 01:59S 41°17' E 174°00'0 0.0
2019-Apr-21 01:29S 41°17' E 174°00'0 0.0
2019-Apr-21 00:59S 41°17' E 174°00'0 0.0
2019-Apr-21 00:29S 41°17' E 174°00'0 0.0
2019-Apr-20 23:59S 41°17' E 174°00'0 0.0
2019-Apr-20 23:29S 41°17' E 174°00'0 0.0
2019-Apr-20 22:59S 41°17' E 174°00'0 0.0
2019-Apr-20 22:30S 41°17' E 174°00'1 2.8
2019-Apr-20 22:00S 41°15' E 174°01'714.5
2019-Apr-20 21:30S 41°13' E 174°10'815.1
2019-Apr-20 21:00S 41°07' E 174°16'815.6
2019-Apr-20 20:30S 41°00' E 174°22'815.9
2019-Apr-20 20:00S 40°52' E 174°20'815.6
2019-Apr-20 19:30S 40°46' E 174°15'815.3
2019-Apr-20 19:00S 40°40' E 174°09'815.1
2019-Apr-20 18:30S 40°35' E 174°01'815.3
2019-Apr-20 18:00S 40°32' E 173°52'815.6
2019-Apr-20 17:30S 40°29' E 173°42'816.2
2019-Apr-20 17:01S 40°26' E 173°32'816.8
2019-Apr-20 16:30S 40°23' E 173°22'918.0
2019-Apr-20 16:00S 40°20' E 173°11'918.3
2019-Apr-20 15:30S 40°17' E 172°60'917.7
2019-Apr-20 15:00S 40°14' E 172°49'8516.9
2019-Apr-20 10:00S 39°42' E 171°06'2626.0 270 / 131027.0 5.4 16.316.320.1
2019-Apr-20 09:00S 39°30' E 170°36'18793.5 250 / 131027.0 5.4 15.515.520.1
2019-Apr-20 07:00S 36°24' E 170°12'37818.9 310 / 221040.0 18.0 20.0
2019-Apr-19 11:00S 37°12' E 162°24'47420.6 010 / 101030.0 19.019.019.0
2019-Apr-18 12:00S 34°24' E 153°18'5920.1 100 / 61027.0 21.0 26.0
2019-Apr-18 09:03S 34°07' E 152°10'1320.4
2019-Apr-18 08:25S 34°02' E 151°55'820.0
2019-Apr-18 08:00S 33°59' E 151°46'1019.9
2019-Apr-18 07:30S 33°55' E 151°35'1019.4
2019-Apr-18 07:00S 33°52' E 151°24'713.4
2019-Apr-18 06:31S 33°50' E 151°16'3 6.5
2019-Apr-18 06:00S 33°51' E 151°13'0 0.2
2019-Apr-18 05:27S 33°52' E 151°13'0 0.0
2019-Apr-18 04:57S 33°52' E 151°13'0 0.0
2019-Apr-18 04:27S 33°52' E 151°13'0 0.0
2019-Apr-18 03:57S 33°52' E 151°13'0 0.0
2019-Apr-18 03:27S 33°52' E 151°13'0 0.0
2019-Apr-18 02:57S 33°52' E 151°13'0 0.0
2019-Apr-18 02:27S 33°52' E 151°13'0 0.0
2019-Apr-18 01:57S 33°52' E 151°13'0 0.0
2019-Apr-18 01:27S 33°52' E 151°13'0 0.0
2019-Apr-18 00:57S 33°52' E 151°13'0 0.0
2019-Apr-18 00:27S 33°52' E 151°13'0 0.0
2019-Apr-17 23:57S 33°52' E 151°13'0 0.0
2019-Apr-17 23:27S 33°52' E 151°13'0 0.0
2019-Apr-17 22:57S 33°52' E 151°13'0 0.0
2019-Apr-17 22:27S 33°52' E 151°13'0 0.0
2019-Apr-17 21:57S 33°52' E 151°13'0 0.0
2019-Apr-17 21:27S 33°52' E 151°13'0 0.0
2019-Apr-17 20:57S 33°52' E 151°13'0 0.1
2019-Apr-17 20:27S 33°52' E 151°13'0 1.1
2019-Apr-17 20:00S 33°51' E 151°13'4 7.5
2019-Apr-17 19:30S 33°50' E 151°17'612.4
2019-Apr-17 19:00S 33°52' E 151°24'713.9
2019-Apr-17 18:30S 33°57' E 151°30'714.2
2019-Apr-17 18:00S 34°03' E 151°34'5284.4
2019-Apr-17 18:00S 34°00' E 151°30'1021.3 290 / 51023.010.8 19.019.023.0
2019-Apr-17 17:30S 34°10' E 151°32'27415.5
2019-Apr-16 23:54S 38°18' E 149°08'919.6
2019-Apr-16 23:28S 38°23' E 148°60'1019.6
2019-Apr-16 22:57S 38°29' E 148°49'1119.7
2019-Apr-16 22:24S 38°35' E 148°37'4819.3
2019-Apr-16 19:54S 38°56' E 147°41'13613.7
2019-Apr-16 10:00S 38°18' E 144°54'   010 / 151023.010.8 22.322.319.3
Track history (hours):
 
Tides and Currents Weather Stations Pressure Air Temp Water Temp Dewpoint Dewpoint Depression Visibility Wind Speed Wind Dir Waves Ship Positions

Radiance Of The Seas

Operator: Royal Caribbean Cruises Ltd

Last reported at 2019-Apr-25 15:00 UTC. Time now 2019-Apr-26 04:13 UTC.
Position S 26°18' W 159°18'.

Type: Passenger vessel. MMSI: 311319000.

Wind from 110 at 35 knots

Barometer 1020.0 mb
Air temperature 21.4 ° C
Visibility: greater than 2.2 NM
Dewpoint 21.4 ° C
Water temperature 24.5 ° C

Date/timePositionNaut miles runAvg speedWind from/ knotsBaromVisibWave heightAir tempDewpointWater temp
2019-Apr-25 15:00S 26°18' W 159°18'2020.1 110 / 351020.0 2.2 21.421.424.5
2019-Apr-25 14:00S 26°30' W 159°36'2424.1 110 / 321020.0 2.2 21.021.024.4
2019-Apr-25 13:00S 26°48' W 159°54'1717.1 110 / 251021.0 5.4 21.421.424.2
2019-Apr-25 12:00S 26°54' W 160°12'37919.0 090 / 271021.010.8 21.321.324.1
2019-Apr-24 16:00S 31°06' W 165°36'2019.5 090 / 171023.0 5.4 19.219.222.3
2019-Apr-24 15:00S 31°18' W 165°54'1919.5 080 / 201023.0 5.4 19.219.222.2
2019-Apr-24 14:00S 31°30' W 166°12'1615.8 090 / 231024.010.8 19.019.022.0
2019-Apr-24 13:00S 31°42' W 166°24'19319.3 090 / 201024.0 5.4 19.019.022.0
2019-Apr-24 03:00S 33°42' W 169°24'22520.5 060 / 201024.010.8 19.0
2019-Apr-23 16:00S 35°54' W 173°06'1918.9 050 / 251023.0 5.4 17.017.020.7
2019-Apr-23 15:00S 36°06' W 173°24'1615.7 050 / 251023.0 5.4 18.018.020.5
2019-Apr-23 14:00S 36°12' W 173°42'1515.4 050 / 251024.0 5.4 18.018.020.0
2019-Apr-23 13:00S 36°24' W 173°54'22120.1 050 / 251024.0 5.4 18.018.020.0
2019-Apr-23 02:00S 38°24' W 177°48'3014.8 020 / 221024.010.8 18.0
2019-Apr-23 00:00S 38°42' W 178°18'17321.7 030 / 251024.0 2.2 18.018.019.0
2019-Apr-22 16:00S 40°12' E 178°30'1515.0 030 / 251021.0 5.4 17.317.319.1
2019-Apr-22 15:00S 40°18' E 178°12'15319.9 040 / 231021.0 5.4 17.017.019.0
2019-Apr-22 07:19S 41°40' E 175°21'620.4
2019-Apr-22 07:00S 41°40' E 175°12'1021.0
2019-Apr-22 06:30S 41°34' E 175°01'1020.2
2019-Apr-22 06:00S 41°27' E 174°52'714.0
2019-Apr-22 05:30S 41°20' E 174°51'4 7.4
2019-Apr-22 04:54S 41°16' E 174°47'0 0.0
2019-Apr-22 04:30S 41°16' E 174°47'0 0.0
2019-Apr-22 04:00S 41°16' E 174°47'0 0.0
2019-Apr-22 03:27S 41°16' E 174°47'0 0.0
2019-Apr-22 03:00S 41°16' E 174°47'0 0.0
2019-Apr-22 02:27S 41°16' E 174°47'0 0.0
2019-Apr-22 02:00S 41°16' E 174°47'0 0.0
2019-Apr-22 01:30S 41°16' E 174°47'0 0.0
2019-Apr-22 01:00S 41°16' E 174°47'0 0.0
2019-Apr-22 00:24S 41°16' E 174°47'0 0.0
2019-Apr-22 00:00S 41°16' E 174°47'0 0.0
2019-Apr-21 23:30S 41°16' E 174°47'0 0.0
2019-Apr-21 23:00S 41°16' E 174°47'0 0.0
2019-Apr-21 22:30S 41°16' E 174°47'0 0.0
2019-Apr-21 21:57S 41°16' E 174°47'0 0.0
2019-Apr-21 21:30S 41°16' E 174°47'0 0.0
2019-Apr-21 21:00S 41°16' E 174°47'0 0.0
2019-Apr-21 20:24S 41°16' E 174°47'0 0.0
2019-Apr-21 20:00S 41°16' E 174°47'0 0.0
2019-Apr-21 19:30S 41°16' E 174°47'2 4.3
2019-Apr-21 19:00S 41°16' E 174°50'713.3
2019-Apr-21 18:30S 41°23' E 174°50'714.4
2019-Apr-21 18:01S 41°30' E 174°51'816.2
2019-Apr-21 17:30S 41°38' E 174°53'713.8
2019-Apr-21 17:00S 41°44' E 174°57'4 8.6
2019-Apr-21 16:30S 41°46' E 174°52'510.0
2019-Apr-21 16:00S 41°44' E 174°46'510.0
2019-Apr-21 15:30S 41°42' E 174°40'5 9.9
2019-Apr-21 15:01S 41°38' E 174°35'510.5
2019-Apr-21 14:31S 41°34' E 174°31'510.2
2019-Apr-21 14:00S 41°30' E 174°27'510.2
2019-Apr-21 13:30S 41°25' E 174°28'611.2
2019-Apr-21 13:00S 41°20' E 174°29'611.8
2019-Apr-21 12:30S 41°14' E 174°31'611.0
2019-Apr-21 12:00S 41°08' E 174°32'510.3
2019-Apr-21 11:30S 41°03' E 174°33'5 9.9
2019-Apr-21 11:00S 41°01' E 174°27'4 8.7
2019-Apr-21 10:30S 41°02' E 174°22'5 9.9
2019-Apr-21 10:00S 41°06' E 174°17'713.2
2019-Apr-21 09:30S 41°11' E 174°12'815.2
2019-Apr-21 09:00S 41°15' E 174°03'3 5.9
2019-Apr-21 08:29S 41°17' E 174°00'0 0.0
2019-Apr-21 07:59S 41°17' E 174°00'0 0.0
2019-Apr-21 07:29S 41°17' E 174°00'0 0.0
2019-Apr-21 06:59S 41°17' E 174°00'0 0.0
2019-Apr-21 06:29S 41°17' E 174°00'0 0.0
2019-Apr-21 05:59S 41°17' E 174°00'0 0.0
2019-Apr-21 05:29S 41°17' E 174°00'0 0.0
2019-Apr-21 04:59S 41°17' E 174°00'0 0.0
2019-Apr-21 04:29S 41°17' E 174°00'0 0.0
2019-Apr-21 03:59S 41°17' E 174°00'0 0.0
2019-Apr-21 03:29S 41°17' E 174°00'0 0.0
2019-Apr-21 02:59S 41°17' E 174°00'0 0.0
2019-Apr-21 02:29S 41°17' E 174°00'0 0.0
2019-Apr-21 01:59S 41°17' E 174°00'0 0.0
2019-Apr-21 01:29S 41°17' E 174°00'0 0.0
2019-Apr-21 00:59S 41°17' E 174°00'0 0.0
2019-Apr-21 00:29S 41°17' E 174°00'0 0.0
2019-Apr-20 23:59S 41°17' E 174°00'0 0.0
2019-Apr-20 23:29S 41°17' E 174°00'0 0.0
2019-Apr-20 22:59S 41°17' E 174°00'0 0.0
2019-Apr-20 22:30S 41°17' E 174°00'1 2.8
2019-Apr-20 22:00S 41°15' E 174°01'714.5
2019-Apr-20 21:30S 41°13' E 174°10'815.1
2019-Apr-20 21:00S 41°07' E 174°16'815.6
2019-Apr-20 20:30S 41°00' E 174°22'815.9
2019-Apr-20 20:00S 40°52' E 174°20'815.6
2019-Apr-20 19:30S 40°46' E 174°15'815.3
2019-Apr-20 19:00S 40°40' E 174°09'815.1
2019-Apr-20 18:30S 40°35' E 174°01'815.3
2019-Apr-20 18:00S 40°32' E 173°52'815.6
2019-Apr-20 17:30S 40°29' E 173°42'816.2
2019-Apr-20 17:01S 40°26' E 173°32'816.8
2019-Apr-20 16:30S 40°23' E 173°22'918.0
2019-Apr-20 16:00S 40°20' E 173°11'918.3
2019-Apr-20 15:30S 40°17' E 172°60'917.7
2019-Apr-20 15:00S 40°14' E 172°49'8516.9
2019-Apr-20 10:00S 39°42' E 171°06'2626.0 270 / 131027.0 5.4 16.316.320.1
2019-Apr-20 09:00S 39°30' E 170°36'18793.5 250 / 131027.0 5.4 15.515.520.1
2019-Apr-20 07:00S 36°24' E 170°12'37818.9 310 / 221040.0 18.0 20.0
2019-Apr-19 11:00S 37°12' E 162°24'47420.6 010 / 101030.0 19.019.019.0
2019-Apr-18 12:00S 34°24' E 153°18'5920.1 100 / 61027.0 21.0 26.0
2019-Apr-18 09:03S 34°07' E 152°10'1320.4
2019-Apr-18 08:25S 34°02' E 151°55'820.0
2019-Apr-18 08:00S 33°59' E 151°46'1019.9
2019-Apr-18 07:30S 33°55' E 151°35'1019.4
2019-Apr-18 07:00S 33°52' E 151°24'713.4
2019-Apr-18 06:31S 33°50' E 151°16'3 6.5
2019-Apr-18 06:00S 33°51' E 151°13'0 0.2
2019-Apr-18 05:27S 33°52' E 151°13'0 0.0
2019-Apr-18 04:57S 33°52' E 151°13'0 0.0
2019-Apr-18 04:27S 33°52' E 151°13'0 0.0
2019-Apr-18 03:57S 33°52' E 151°13'0 0.0
2019-Apr-18 03:27S 33°52' E 151°13'0 0.0
2019-Apr-18 02:57S 33°52' E 151°13'0 0.0
2019-Apr-18 02:27S 33°52' E 151°13'0 0.0
2019-Apr-18 01:57S 33°52' E 151°13'0 0.0
2019-Apr-18 01:27S 33°52' E 151°13'0 0.0
2019-Apr-18 00:57S 33°52' E 151°13'0 0.0
2019-Apr-18 00:27S 33°52' E 151°13'0 0.0
2019-Apr-17 23:57S 33°52' E 151°13'0 0.0
2019-Apr-17 23:27S 33°52' E 151°13'0 0.0
2019-Apr-17 22:57S 33°52' E 151°13'0 0.0
2019-Apr-17 22:27S 33°52' E 151°13'0 0.0
2019-Apr-17 21:57S 33°52' E 151°13'0 0.0
2019-Apr-17 21:27S 33°52' E 151°13'0 0.0
2019-Apr-17 20:57S 33°52' E 151°13'0 0.1
2019-Apr-17 20:27S 33°52' E 151°13'0 1.1
2019-Apr-17 20:00S 33°51' E 151°13'4 7.5
2019-Apr-17 19:30S 33°50' E 151°17'612.4
2019-Apr-17 19:00S 33°52' E 151°24'713.9
2019-Apr-17 18:30S 33°57' E 151°30'714.2
2019-Apr-17 18:00S 34°03' E 151°34'5284.4
2019-Apr-17 18:00S 34°00' E 151°30'1021.3 290 / 51023.010.8 19.019.023.0
2019-Apr-17 17:30S 34°10' E 151°32'27415.5
2019-Apr-16 23:54S 38°18' E 149°08'919.6
2019-Apr-16 23:28S 38°23' E 148°60'1019.6
2019-Apr-16 22:57S 38°29' E 148°49'1119.7
2019-Apr-16 22:24S 38°35' E 148°37'4819.3
2019-Apr-16 19:54S 38°56' E 147°41'13613.7
2019-Apr-16 10:00S 38°18' E 144°54'   010 / 151023.010.8 22.322.319.3

Dump ship's entire track history